| time (UTC) | temp F | wind direction | speed knots | gust knots | rain 1hr in | rain 24hr in | rain mn in | humidity % | barometer mb |
| 20260510033354 | 53 | 340 | 0.0 | 0.0 | 0.00 | 0.00 | 0.00 | 91 | 1012.1 |
| 20260510032850 | 53 | 350 | 0.0 | 0.0 | 0.00 | 0.00 | 0.00 | 90 | 1011.9 |
| 20260510032347 | 53 | 352 | 0.0 | 0.0 | 0.00 | 0.00 | 0.00 | 90 | 1012.4 |
| 20260510031843 | 53 | 333 | 0.0 | 0.0 | 0.00 | 0.00 | 0.00 | 90 | 1012.2 |
| 20260510031338 | 54 | 331 | 0.0 | 0.0 | 0.00 | 0.00 | 0.00 | 90 | 1012.2 |
| 20260510030838 | 54 | 330 | 0.0 | 0.0 | 0.00 | 0.00 | 0.00 | 89 | 1012.0 |
| 20260510030335 | 54 | 330 | 0.0 | 0.0 | 0.00 | 0.00 | 0.00 | 89 | 1012.1 |
| 20260510025832 | 54 | 335 | 0.0 | 0.0 | 0.00 | 0.00 | 0.00 | 89 | 1011.9 |
| 20260510025329 | 54 | 335 | 0.0 | 0.0 | 0.00 | 0.00 | 0.00 | 89 | 1011.9 |
| 20260510024826 | 54 | 335 | 0.0 | 0.0 | 0.00 | 0.00 | 0.00 | 88 | 1012.0 |
| 20260510024323 | 54 | 335 | 0.0 | 0.0 | 0.00 | 0.00 | 0.00 | 88 | 1012.1 |
| 20260510023819 | 55 | 334 | 0.0 | 0.0 | 0.00 | 0.00 | 0.00 | 88 | 1011.9 |
| 20260510023315 | 55 | 334 | 0.0 | 0.0 | 0.00 | 0.00 | 0.00 | 87 | 1011.8 |
| 20260510022813 | 55 | 334 | 0.0 | 0.0 | 0.00 | 0.00 | 0.00 | 87 | 1012.0 |
| 20260510022312 | 55 | 334 | 0.0 | 0.0 | 0.00 | 0.00 | 0.00 | 87 | 1012.0 |
| 20260510021811 | 55 | 335 | 0.0 | 0.0 | 0.00 | 0.00 | 0.00 | 87 | 1012.1 |
| 20260510021310 | 55 | 338 | 0.0 | 0.0 | 0.00 | 0.00 | 0.00 | 86 | 1011.9 |
| 20260510020805 | 56 | 339 | 0.0 | 0.0 | 0.00 | 0.00 | 0.00 | 86 | 1012.1 |
| 20260510020306 | 56 | 339 | 0.0 | 0.0 | 0.00 | 0.00 | 0.00 | 86 | 1011.9 |
| 20260510015802 | 56 | 339 | 0.0 | 0.0 | 0.00 | 0.00 | 0.00 | 86 | 1011.8 |
| 20260510015258 | 56 | 339 | 0.0 | 0.0 | 0.00 | 0.00 | 0.00 | 86 | 1011.8 |
| 20260510014753 | 56 | 339 | 0.0 | 0.0 | 0.00 | 0.00 | 0.00 | 86 | 1011.8 |
| 20260510014250 | 55 | 340 | 0.0 | 0.0 | 0.00 | 0.00 | 0.00 | 86 | 1011.6 |
| 20260510013746 | 56 | 340 | 0.0 | 0.0 | 0.00 | 0.00 | 0.00 | 86 | 1011.6 |
| 20260510013243 | 56 | 343 | 0.0 | 0.0 | 0.00 | 0.00 | 0.00 | 86 | 1011.4 |
| 20260510012743 | 56 | 357 | 0.0 | 0.0 | 0.00 | 0.00 | 0.00 | 85 | 1011.3 |
| 20260510012238 | 56 | 358 | 0.0 | 0.0 | 0.00 | 0.00 | 0.00 | 85 | 1011.4 |
| 20260510011737 | 56 | 344 | 0.0 | 0.0 | 0.00 | 0.00 | 0.00 | 85 | 1011.5 |
| 20260510011233 | 56 | 353 | 0.9 | 0.9 | 0.00 | 0.00 | 0.00 | 85 | 1011.3 |
| 20260510010730 | 56 | 343 | 0.0 | 0.0 | 0.00 | 0.00 | 0.00 | 85 | 1011.4 |
| 20260510010226 | 56 | 337 | 0.0 | 0.0 | 0.00 | 0.00 | 0.00 | 85 | 1011.2 |
| 20260510005724 | 56 | 335 | 0.0 | 0.0 | 0.00 | 0.00 | 0.00 | 85 | 1011.1 |
| 20260510005220 | 57 | 337 | 0.0 | 0.0 | 0.00 | 0.00 | 0.00 | 84 | 1010.9 |
| 20260510004718 | 57 | 337 | 0.0 | 0.0 | 0.00 | 0.00 | 0.00 | 84 | 1010.9 |
| 20260510004216 | 58 | 336 | 0.0 | 0.0 | 0.00 | 0.00 | 0.00 | 83 | 1010.9 |
| 20260510003713 | 58 | 346 | 0.0 | 0.0 | 0.00 | 0.00 | 0.00 | 83 | 1010.9 |
| 20260510003209 | 58 | 348 | 0.0 | 0.0 | 0.00 | 0.00 | 0.00 | 82 | 1010.8 |
| 20260510002708 | 58 | 10 | 0.0 | 0.0 | 0.00 | 0.00 | 0.00 | 82 | 1011.0 |
| 20260510002206 | 58 | 358 | 0.0 | 0.0 | 0.00 | 0.00 | 0.00 | 82 | 1010.8 |
| 20260510001702 | 58 | 338 | 0.0 | 0.0 | 0.00 | 0.00 | 0.00 | 82 | 1011.0 |
| 20260510001201 | 59 | 333 | 0.0 | 0.0 | 0.00 | 0.00 | 0.00 | 81 | 1010.9 |
| 20260510000702 | 59 | 7 | 0.0 | 0.9 | 0.00 | 0.00 | 0.00 | 81 | 1010.8 |
| 20260510000159 | 59 | 19 | 0.9 | 0.9 | 0.00 | 0.00 | 0.00 | 80 | 1010.6 |
| 20260509235656 | 60 | 346 | 0.0 | 0.0 | 0.00 | 0.00 | 0.00 | 80 | 1010.4 |
| 20260509235152 | 60 | 352 | 0.0 | 0.0 | 0.00 | 0.00 | 0.00 | 80 | 1010.5 |
| 20260509234648 | 60 | 348 | 0.9 | 0.9 | 0.00 | 0.00 | 0.00 | 79 | 1010.5 |
| 20260509234146 | 61 | 7 | 0.0 | 0.9 | 0.00 | 0.00 | 0.00 | 79 | 1010.5 |
| 20260509233644 | 61 | 337 | 0.0 | 0.0 | 0.00 | 0.00 | 0.00 | 78 | 1010.5 |
| 20260509233141 | 61 | 7 | 0.9 | 0.9 | 0.00 | 0.00 | 0.00 | 77 | 1010.6 |
| 20260509232637 | 62 | 11 | 0.0 | 0.9 | 0.00 | 0.00 | 0.00 | 76 | 1010.4 |
| 20260509232134 | 62 | 356 | 0.0 | 0.0 | 0.00 | 0.00 | 0.00 | 75 | 1010.3 |
| 20260509231630 | 62 | 89 | 2.6 | 2.6 | 0.00 | 0.00 | 0.00 | 75 | 1010.5 |
| 20260509231128 | 62 | 192 | 1.7 | 1.7 | 0.00 | 0.00 | 0.00 | 75 | 1010.5 |
| 20260509230625 | 62 | 29 | 0.0 | 0.0 | 0.00 | 0.00 | 0.00 | 75 | 1010.5 |
| 20260509230122 | 62 | 329 | 0.0 | 0.9 | 0.00 | 0.00 | 0.00 | 75 | 1010.5 |
| 20260509225618 | 62 | 335 | 0.0 | 0.9 | 0.00 | 0.00 | 0.00 | 76 | 1010.4 |
| 20260509225113 | 62 | 262 | 0.9 | 0.9 | 0.00 | 0.00 | 0.00 | 76 | 1010.6 |
| 20260509224609 | 62 | 134 | 0.9 | 0.9 | 0.00 | 0.00 | 0.00 | 76 | 1010.5 |
| 20260509224106 | 62 | 10 | 0.0 | 0.0 | 0.00 | 0.00 | 0.00 | 76 | 1010.4 |
| 20260509223603 | 62 | 23 | 0.9 | 0.9 | 0.00 | 0.00 | 0.00 | 76 | 1010.5 |
| 20260509223100 | 62 | 295 | 0.9 | 0.9 | 0.00 | 0.00 | 0.00 | 75 | 1010.5 |
| 20260509222556 | 63 | 327 | 0.9 | 1.7 | 0.00 | 0.00 | 0.00 | 74 | 1010.4 |
| 20260509222052 | 64 | 2 | 0.9 | 0.9 | 0.00 | 0.00 | 0.00 | 74 | 1010.5 |
| 20260509221548 | 63 | 28 | 0.0 | 0.0 | 0.00 | 0.00 | 0.00 | 74 | 1010.4 |
| 20260509221044 | 63 | 33 | 0.9 | 0.9 | 0.00 | 0.00 | 0.00 | 75 | 1010.6 |
| 20260509220540 | 63 | 146 | 2.6 | 4.3 | 0.00 | 0.00 | 0.00 | 74 | 1010.6 |
| 20260509220037 | 63 | 359 | 0.9 | 0.9 | 0.00 | 0.00 | 0.00 | 75 | 1010.6 |
| 20260509215532 | 63 | 104 | 3.5 | 4.3 | 0.00 | 0.00 | 0.00 | 74 | 1010.4 |
| 20260509215030 | 63 | 175 | 2.6 | 2.6 | 0.00 | 0.00 | 0.00 | 73 | 1010.6 |
| 20260509214527 | 63 | 272 | 0.0 | 0.9 | 0.00 | 0.00 | 0.00 | 74 | 1010.8 |
| 20260509214024 | 63 | 68 | 0.9 | 1.7 | 0.00 | 0.00 | 0.00 | 73 | 1010.7 |
| 20260509213519 | 63 | 287 | 0.9 | 0.9 | 0.00 | 0.00 | 0.00 | 74 | 1010.8 |
| 20260509213017 | 62 | 338 | 0.0 | 0.9 | 0.00 | 0.00 | 0.00 | 75 | 1010.9 |
| 20260509212514 | 63 | 206 | 1.7 | 1.7 | 0.00 | 0.00 | 0.00 | 74 | 1010.8 |
| 20260509212011 | 62 | 120 | 1.7 | 2.6 | 0.00 | 0.00 | 0.00 | 75 | 1010.9 |
| 20260509211506 | 63 | 234 | 0.9 | 0.9 | 0.00 | 0.00 | 0.00 | 76 | 1011.0 |
| 20260509211003 | 63 | 152 | 3.5 | 5.2 | 0.00 | 0.00 | 0.00 | 74 | 1011.0 |
| 20260509210500 | 62 | 328 | 0.0 | 0.9 | 0.00 | 0.00 | 0.00 | 77 | 1011.1 |
| 20260509205955 | 61 | 139 | 2.6 | 2.6 | 0.00 | 0.00 | 0.00 | 79 | 1011.2 |
| 20260509205450 | 60 | 65 | 2.6 | 2.6 | 0.00 | 0.00 | 0.00 | 80 | 1011.1 |
| 20260509204946 | 60 | 332 | 0.9 | 0.9 | 0.00 | 0.00 | 0.00 | 83 | 1011.1 |
| 20260509204443 | 59 | 31 | 0.9 | 1.7 | 0.00 | 0.00 | 0.00 | 84 | 1011.4 |
| 20260509203939 | 59 | 333 | 0.0 | 0.9 | 0.00 | 0.00 | 0.00 | 84 | 1011.4 |
| 20260509203435 | 58 | 328 | 0.0 | 0.0 | 0.00 | 0.00 | 0.00 | 85 | 1011.6 |
| 20260509202933 | 58 | 341 | 0.9 | 0.9 | 0.00 | 0.00 | 0.00 | 85 | 1011.6 |
| 20260509202429 | 58 | 324 | 0.9 | 0.9 | 0.00 | 0.00 | 0.00 | 85 | 1011.6 |
| 20260509201924 | 58 | 333 | 0.9 | 0.9 | 0.00 | 0.00 | 0.00 | 85 | 1011.7 |
| 20260509201419 | 58 | 315 | 0.9 | 0.9 | 0.00 | 0.00 | 0.00 | 85 | 1011.6 |
| 20260509200917 | 58 | 315 | 0.9 | 1.7 | 0.00 | 0.00 | 0.00 | 85 | 1011.2 |
| 20260509200416 | 58 | 332 | 0.0 | 0.0 | 0.00 | 0.00 | 0.00 | 85 | 1011.2 |
| 20260509195913 | 58 | 339 | 0.0 | 0.0 | 0.00 | 0.00 | 0.00 | 85 | 1010.8 |
| 20260509195409 | 58 | 10 | 0.9 | 0.9 | 0.00 | 0.00 | 0.00 | 85 | 1011.1 |
| 20260509194908 | 58 | 346 | 0.0 | 0.9 | 0.00 | 0.00 | 0.00 | 85 | 1011.2 |
| 20260509194405 | 58 | 20 | 2.6 | 2.6 | 0.00 | 0.00 | 0.00 | 85 | 1011.6 |
| 20260509193901 | 58 | 5 | 0.9 | 0.9 | 0.00 | 0.00 | 0.00 | 85 | 1011.8 |
| 20260509193401 | 58 | 345 | 0.9 | 0.9 | 0.00 | 0.00 | 0.00 | 84 | 1011.9 |
| 20260509192857 | 58 | 314 | 1.7 | 1.7 | 0.00 | 0.00 | 0.00 | 84 | 1011.6 |
| 20260509192354 | 59 | 346 | 1.7 | 1.7 | 0.00 | 0.00 | 0.00 | 83 | 1011.7 |
| 20260509191849 | 60 | 31 | 3.5 | 4.3 | 0.00 | 0.00 | 0.00 | 80 | 1011.9 |
| 20260509191345 | 62 | 2 | 0.0 | 0.9 | 0.00 | 0.00 | 0.00 | 79 | 1011.7 |
| 20260509190841 | 59 | 335 | 0.9 | 0.9 | 0.00 | 0.00 | 0.00 | 81 | 1011.7 |
| 20260509190338 | 60 | 16 | 1.7 | 1.7 | 0.00 | 0.00 | 0.00 | 81 | 1011.8 |
| 20260509185836 | 60 | 356 | 0.9 | 1.7 | 0.00 | 0.00 | 0.00 | 83 | 1011.8 |
| 20260509185332 | 59 | 321 | 0.9 | 1.7 | 0.00 | 0.00 | 0.00 | 83 | 1012.1 |
| 20260509184830 | 59 | 1 | 0.9 | 0.9 | 0.00 | 0.00 | 0.00 | 84 | 1012.4 |
| 20260509184327 | 58 | 359 | 0.0 | 0.0 | 0.00 | 0.00 | 0.00 | 85 | 1012.5 |
| 20260509183823 | 58 | 145 | 2.6 | 2.6 | 0.00 | 0.00 | 0.00 | 85 | 1012.2 |
| 20260509183318 | 58 | 256 | 0.9 | 0.9 | 0.00 | 0.00 | 0.00 | 86 | 1012.4 |
| 20260509182814 | 58 | 356 | 0.0 | 0.9 | 0.00 | 0.00 | 0.00 | 87 | 1012.3 |
| 20260509182312 | 57 | 15 | 0.9 | 0.9 | 0.00 | 0.00 | 0.00 | 87 | 1012.4 |
| 20260509181809 | 57 | 17 | 0.0 | 0.9 | 0.00 | 0.00 | 0.00 | 88 | 1012.3 |
| 20260509181306 | 56 | 158 | 1.7 | 1.7 | 0.00 | 0.00 | 0.00 | 88 | 1012.2 |
| 20260509180804 | 57 | 19 | 0.0 | 0.9 | 0.00 | 0.00 | 0.00 | 88 | 1012.2 |
| 20260509180259 | 57 | 21 | 0.0 | 0.9 | 0.00 | 0.00 | 0.00 | 89 | 1012.3 |
| 20260509175756 | 56 | 340 | 0.0 | 0.9 | 0.00 | 0.00 | 0.00 | 89 | 1012.1 |
| 20260509175252 | 56 | 309 | 0.0 | 0.0 | 0.00 | 0.00 | 0.00 | 90 | 1012.4 |
| 20260509174748 | 55 | 298 | 0.0 | 0.0 | 0.00 | 0.00 | 0.00 | 91 | 1012.5 |
| 20260509174244 | 56 | 326 | 0.0 | 0.0 | 0.00 | 0.00 | 0.00 | 92 | 1012.6 |
| 20260509173740 | 55 | 323 | 0.0 | 0.0 | 0.00 | 0.00 | 0.00 | 92 | 1012.6 |
| 20260509173236 | 55 | 315 | 0.0 | 0.0 | 0.00 | 0.00 | 0.00 | 92 | 1012.7 |
| 20260509172732 | 55 | 306 | 0.0 | 0.9 | 0.00 | 0.00 | 0.00 | 92 | 1012.7 |
| 20260509172229 | 55 | 310 | 0.0 | 0.0 | 0.00 | 0.00 | 0.00 | 93 | 1012.8 |
| 20260509171724 | 54 | 312 | 0.0 | 0.0 | 0.00 | 0.00 | 0.00 | 93 | 1013.1 |
| 20260509171221 | 54 | 304 | 0.0 | 0.0 | 0.00 | 0.00 | 0.00 | 93 | 1013.1 |
| 20260509170718 | 55 | 295 | 1.7 | 1.7 | 0.00 | 0.00 | 0.00 | 93 | 1012.9 |
| 20260509170214 | 55 | 295 | 0.0 | 0.9 | 0.00 | 0.00 | 0.00 | 93 | 1013.2 |
| 20260509165712 | 54 | 345 | 0.9 | 0.9 | 0.00 | 0.00 | 0.00 | 93 | 1013.1 |
| 20260509165207 | 54 | 289 | 0.0 | 0.9 | 0.00 | 0.00 | 0.00 | 93 | 1013.1 |
| 20260509164704 | 53 | 272 | 0.9 | 1.7 | 0.00 | 0.00 | 0.00 | 93 | 1013.1 |
| 20260509164159 | 53 | 142 | 1.7 | 1.7 | 0.00 | 0.00 | 0.00 | 93 | 1013.1 |
| 20260509163657 | 53 | 178 | 0.9 | 1.7 | 0.00 | 0.00 | 0.00 | 93 | 1013.2 |
| 20260509163153 | 53 | 158 | 2.6 | 2.6 | 0.00 | 0.00 | 0.00 | 93 | 1013.1 |
| 20260509162651 | 53 | 186 | 0.9 | 0.9 | 0.00 | 0.00 | 0.00 | 93 | 1012.7 |
| 20260509162146 | 53 | 169 | 1.7 | 1.7 | 0.00 | 0.00 | 0.00 | 93 | 1012.5 |
| 20260509161642 | 53 | 70 | 0.9 | 0.9 | 0.00 | 0.00 | 0.00 | 92 | 1012.4 |
| 20260509161138 | 53 | 343 | 2.6 | 2.6 | 0.00 | 0.00 | 0.00 | 92 | 1012.3 |
| 20260509160634 | 52 | 349 | 0.9 | 0.9 | 0.00 | 0.00 | 0.00 | 92 | 1012.3 |
| 20260509160129 | 53 | 97 | 2.6 | 4.3 | 0.00 | 0.00 | 0.00 | 92 | 1012.5 |
| 20260509155626 | 53 | 11 | 2.6 | 2.6 | 0.00 | 0.00 | 0.00 | 92 | 1012.6 |
| 20260509155122 | 53 | 347 | 0.0 | 0.9 | 0.00 | 0.00 | 0.00 | 91 | 1012.6 |
| 20260509154618 | 53 | 353 | 0.0 | 0.0 | 0.00 | 0.00 | 0.00 | 91 | 1013.0 |
| 20260509154115 | 53 | 355 | 0.9 | 0.9 | 0.00 | 0.00 | 0.00 | 91 | 1013.1 |
| 20260509153612 | 53 | 53 | 0.0 | 0.9 | 0.00 | 0.00 | 0.00 | 91 | 1013.6 |
| 20260509153109 | 53 | 268 | 0.0 | 0.0 | 0.00 | 0.00 | 0.00 | 90 | 1013.6 |
| 20260509152605 | 53 | 247 | 0.0 | 0.0 | 0.00 | 0.00 | 0.00 | 90 | 1013.8 |
| 20260509152103 | 53 | 242 | 0.0 | 0.9 | 0.00 | 0.00 | 0.00 | 89 | 1013.9 |
| 20260509151558 | 53 | 314 | 0.0 | 0.0 | 0.00 | 0.00 | 0.00 | 89 | 1013.9 |
| 20260509151056 | 54 | 321 | 0.0 | 0.0 | 0.00 | 0.00 | 0.00 | 88 | 1013.9 |
| 20260509150554 | 54 | 333 | 0.0 | 0.0 | 0.00 | 0.00 | 0.00 | 88 | 1013.9 |
| 20260509150052 | 54 | 301 | 0.0 | 0.9 | 0.00 | 0.00 | 0.00 | 87 | 1013.6 |
| 20260509145547 | 54 | 330 | 0.0 | 0.0 | 0.00 | 0.00 | 0.00 | 87 | 1013.7 |
| 20260509145043 | 54 | 336 | 0.0 | 0.0 | 0.00 | 0.00 | 0.00 | 86 | 1013.5 |
| 20260509144540 | 54 | 340 | 0.0 | 0.0 | 0.00 | 0.00 | 0.00 | 86 | 1013.5 |
| 20260509144037 | 55 | 329 | 0.0 | 0.0 | 0.00 | 0.00 | 0.00 | 86 | 1013.3 |
| 20260509143534 | 55 | 300 | 0.9 | 0.9 | 0.00 | 0.00 | 0.00 | 84 | 1013.4 |
| 20260509143033 | 55 | 45 | 0.0 | 0.9 | 0.00 | 0.00 | 0.00 | 83 | 1013.4 |
| 20260509142533 | 55 | 324 | 0.0 | 0.0 | 0.00 | 0.00 | 0.00 | 82 | 1013.0 |
| 20260509142029 | 55 | 327 | 0.0 | 0.0 | 0.00 | 0.00 | 0.00 | 81 | 1013.3 |
| 20260509141525 | 55 | 321 | 0.9 | 0.9 | 0.00 | 0.00 | 0.00 | 79 | 1013.1 |
| 20260509141022 | 56 | 314 | 0.0 | 0.0 | 0.00 | 0.00 | 0.00 | 79 | 1013.3 |
| 20260509140519 | 55 | 299 | 0.0 | 0.9 | 0.00 | 0.00 | 0.00 | 78 | 1013.0 |
| 20260509140017 | 55 | 324 | 0.9 | 0.9 | 0.00 | 0.00 | 0.00 | 79 | 1013.2 |
| 20260509135514 | 55 | 173 | 2.6 | 4.3 | 0.00 | 0.00 | 0.00 | 79 | 1013.0 |
| 20260509135011 | 55 | 332 | 0.0 | 0.9 | 0.00 | 0.00 | 0.00 | 80 | 1013.2 |
| 20260509134508 | 55 | 234 | 0.9 | 1.7 | 0.00 | 0.00 | 0.00 | 80 | 1013.1 |
| 20260509134006 | 55 | 67 | 0.9 | 0.9 | 0.00 | 0.00 | 0.00 | 81 | 1013.0 |
| 20260509133502 | 55 | 309 | 0.0 | 0.9 | 0.00 | 0.00 | 0.00 | 81 | 1013.0 |
| 20260509133000 | 55 | 257 | 0.9 | 1.7 | 0.00 | 0.00 | 0.00 | 81 | 1013.0 |
| 20260509132458 | 54 | 127 | 2.6 | 4.3 | 0.00 | 0.00 | 0.00 | 81 | 1013.0 |
| 20260509131955 | 54 | 58 | 0.9 | 1.7 | 0.00 | 0.00 | 0.00 | 82 | 1012.9 |
| 20260509131452 | 54 | 108 | 2.6 | 2.6 | 0.00 | 0.00 | 0.00 | 83 | 1013.0 |
| 20260509130949 | 53 | 61 | 0.9 | 1.7 | 0.00 | 0.00 | 0.00 | 84 | 1013.1 |
| 20260509130444 | 54 | 324 | 0.0 | 0.0 | 0.00 | 0.00 | 0.00 | 84 | 1013.0 |
| 20260509125941 | 53 | 354 | 0.0 | 0.0 | 0.00 | 0.00 | 0.00 | 84 | 1012.4 |
| 20260509125438 | 53 | 329 | 0.0 | 0.0 | 0.00 | 0.00 | 0.00 | 84 | 1012.4 |
| 20260509124934 | 53 | 338 | 0.0 | 0.0 | 0.00 | 0.00 | 0.00 | 85 | 1012.3 |
| 20260509124431 | 53 | 333 | 0.9 | 0.9 | 0.00 | 0.00 | 0.00 | 84 | 1012.2 |
| 20260509123928 | 53 | 7 | 0.9 | 1.7 | 0.00 | 0.00 | 0.00 | 84 | 1012.4 |
| 20260509123426 | 53 | 355 | 2.6 | 2.6 | 0.00 | 0.00 | 0.00 | 83 | 1012.3 |
| 20260509122921 | 54 | 335 | 0.9 | 0.9 | 0.00 | 0.00 | 0.00 | 83 | 1012.7 |
| 20260509122419 | 54 | 339 | 0.0 | 0.0 | 0.00 | 0.00 | 0.00 | 82 | 1012.8 |
| 20260509121915 | 54 | 329 | 0.0 | 0.0 | 0.00 | 0.00 | 0.00 | 81 | 1013.0 |
| 20260509121412 | 54 | 324 | 0.0 | 0.0 | 0.00 | 0.00 | 0.00 | 81 | 1013.1 |
| 20260509120910 | 54 | 304 | 0.0 | 0.0 | 0.00 | 0.00 | 0.00 | 81 | 1013.0 |
| 20260509120408 | 53 | 303 | 0.0 | 0.9 | 0.00 | 0.00 | 0.00 | 81 | 1013.1 |
| 20260509115906 | 53 | 318 | 0.0 | 0.0 | 0.00 | 0.00 | 0.00 | 81 | 1012.9 |
| 20260509115403 | 53 | 328 | 0.0 | 0.0 | 0.00 | 0.00 | 0.00 | 81 | 1012.7 |
| 20260509114900 | 53 | 321 | 0.0 | 0.0 | 0.00 | 0.00 | 0.00 | 81 | 1012.5 |
| 20260509114359 | 53 | 347 | 0.9 | 0.9 | 0.00 | 0.00 | 0.00 | 81 | 1012.7 |
| 20260509113858 | 53 | 338 | 0.0 | 0.0 | 0.00 | 0.00 | 0.00 | 81 | 1012.5 |
| 20260509113355 | 53 | 322 | 0.9 | 0.9 | 0.00 | 0.00 | 0.00 | 81 | 1012.8 |
| 20260509112851 | 53 | 312 | 0.9 | 0.9 | 0.00 | 0.00 | 0.00 | 81 | 1012.8 |
| 20260509112348 | 53 | 313 | 0.0 | 0.0 | 0.00 | 0.00 | 0.00 | 81 | 1012.5 |
| 20260509111846 | 53 | 326 | 0.0 | 0.0 | 0.00 | 0.00 | 0.00 | 81 | 1012.2 |
| 20260509111342 | 53 | 358 | 0.0 | 0.0 | 0.00 | 0.00 | 0.00 | 81 | 1012.5 |
| 20260509110840 | 53 | 247 | 0.9 | 1.7 | 0.00 | 0.00 | 0.00 | 81 | 1012.3 |
| 20260509110336 | 53 | 13 | 0.9 | 0.9 | 0.00 | 0.00 | 0.00 | 81 | 1012.3 |
| 20260509105834 | 53 | 20 | 0.9 | 1.7 | 0.00 | 0.00 | 0.00 | 80 | 1012.1 |
| 20260509105332 | 53 | 265 | 0.9 | 0.9 | 0.00 | 0.00 | 0.00 | 80 | 1012.4 |
| 20260509104829 | 53 | 321 | 0.9 | 0.9 | 0.00 | 0.00 | 0.00 | 80 | 1012.1 |
| 20260509104325 | 53 | 12 | 0.9 | 1.7 | 0.00 | 0.00 | 0.00 | 80 | 1012.1 |
| 20260509103823 | 53 | 0 | 0.9 | 0.9 | 0.00 | 0.00 | 0.00 | 80 | 1012.2 |
| 20260509103320 | 53 | 358 | 0.9 | 0.9 | 0.00 | 0.00 | 0.00 | 80 | 1012.1 |
| 20260509102820 | 53 | 336 | 0.0 | 0.0 | 0.00 | 0.00 | 0.00 | 80 | 1012.2 |
| 20260509102316 | 53 | 330 | 0.0 | 0.0 | 0.00 | 0.00 | 0.00 | 80 | 1012.3 |
| 20260509101812 | 53 | 318 | 0.0 | 0.9 | 0.00 | 0.00 | 0.00 | 80 | 1012.2 |
| 20260509101308 | 53 | 343 | 0.0 | 0.0 | 0.00 | 0.00 | 0.00 | 80 | 1012.1 |
| 20260509100806 | 53 | 348 | 0.0 | 0.0 | 0.00 | 0.00 | 0.00 | 80 | 1012.2 |
| 20260509100303 | 53 | 14 | 0.0 | 0.0 | 0.00 | 0.00 | 0.00 | 79 | 1012.2 |
| 20260509095759 | 53 | 334 | 0.0 | 0.0 | 0.00 | 0.00 | 0.00 | 79 | 1012.1 |
| 20260509095257 | 53 | 319 | 0.0 | 0.9 | 0.00 | 0.00 | 0.00 | 79 | 1012.0 |
| 20260509094753 | 53 | 346 | 0.0 | 0.0 | 0.00 | 0.00 | 0.00 | 79 | 1012.1 |
| 20260509094250 | 53 | 351 | 0.0 | 0.0 | 0.00 | 0.00 | 0.00 | 79 | 1011.9 |
| 20260509093748 | 53 | 347 | 0.0 | 0.0 | 0.00 | 0.00 | 0.00 | 78 | 1012.1 |
| 20260509093245 | 53 | 353 | 0.0 | 0.0 | 0.00 | 0.00 | 0.00 | 78 | 1012.1 |
| 20260509092744 | 53 | 358 | 1.7 | 1.7 | 0.00 | 0.00 | 0.00 | 78 | 1012.1 |
| 20260509092241 | 53 | 337 | 0.0 | 0.0 | 0.00 | 0.00 | 0.00 | 78 | 1012.1 |
| 20260509091739 | 53 | 330 | 0.0 | 0.0 | 0.00 | 0.00 | 0.00 | 78 | 1012.1 |
| 20260509091235 | 53 | 336 | 0.0 | 0.0 | 0.00 | 0.00 | 0.00 | 78 | 1012.1 |
| 20260509090733 | 53 | 343 | 0.0 | 0.0 | 0.00 | 0.00 | 0.00 | 78 | 1012.1 |
| 20260509090230 | 53 | 346 | 0.0 | 0.0 | 0.00 | 0.00 | 0.00 | 78 | 1012.0 |
| 20260509085727 | 53 | 329 | 0.0 | 0.0 | 0.00 | 0.00 | 0.00 | 77 | 1012.1 |
| 20260509085224 | 53 | 342 | 0.0 | 0.0 | 0.00 | 0.00 | 0.00 | 77 | 1012.2 |
| 20260509084721 | 53 | 1 | 0.0 | 0.0 | 0.00 | 0.00 | 0.00 | 77 | 1012.2 |
| 20260509084217 | 53 | 336 | 0.0 | 0.9 | 0.00 | 0.00 | 0.00 | 77 | 1012.4 |
| 20260509083716 | 53 | 336 | 0.0 | 0.0 | 0.00 | 0.00 | 0.00 | 76 | 1012.5 |
| 20260509083212 | 53 | 343 | 0.0 | 0.9 | 0.00 | 0.00 | 0.00 | 76 | 1012.4 |
| 20260509082709 | 53 | 66 | 0.9 | 1.7 | 0.00 | 0.00 | 0.00 | 75 | 1012.5 |
| 20260509082205 | 54 | 345 | 0.0 | 0.0 | 0.00 | 0.00 | 0.00 | 75 | 1012.3 |
| 20260509081702 | 54 | 100 | 1.7 | 2.6 | 0.00 | 0.00 | 0.00 | 74 | 1012.6 |
| 20260509081159 | 54 | 347 | 0.9 | 0.9 | 0.00 | 0.00 | 0.00 | 74 | 1012.2 |
| 20260509080658 | 53 | 12 | 0.9 | 0.9 | 0.00 | 0.00 | 0.00 | 75 | 1012.2 |
| 20260509080155 | 53 | 354 | 0.0 | 0.0 | 0.00 | 0.00 | 0.00 | 75 | 1012.4 |
| 20260509075654 | 53 | 332 | 0.0 | 0.0 | 0.00 | 0.00 | 0.00 | 75 | 1012.3 |
| 20260509075151 | 53 | 346 | 0.0 | 0.0 | 0.00 | 0.00 | 0.00 | 75 | 1012.5 |
| 20260509074647 | 54 | 350 | 0.0 | 0.0 | 0.00 | 0.00 | 0.00 | 74 | 1012.6 |
| 20260509074144 | 53 | 347 | 0.0 | 0.0 | 0.00 | 0.00 | 0.00 | 74 | 1012.6 |
| 20260509073641 | 54 | 345 | 0.0 | 0.0 | 0.00 | 0.00 | 0.00 | 74 | 1012.5 |
| 20260509073137 | 54 | 348 | 0.0 | 0.9 | 0.00 | 0.00 | 0.00 | 73 | 1012.6 |
| 20260509072634 | 54 | 7 | 0.9 | 1.7 | 0.00 | 0.00 | 0.00 | 73 | 1012.4 |
| 20260509072131 | 54 | 14 | 0.9 | 1.7 | 0.00 | 0.00 | 0.00 | 73 | 1012.6 |
| 20260509071627 | 54 | 348 | 0.0 | 0.9 | 0.00 | 0.00 | 0.00 | 73 | 1012.8 |
| 20260509071125 | 54 | 23 | 1.7 | 1.7 | 0.00 | 0.00 | 0.00 | 73 | 1012.6 |
| 20260509070622 | 54 | 351 | 1.7 | 1.7 | 0.00 | 0.00 | 0.00 | 72 | 1012.8 |
| 20260509070118 | 54 | 12 | 0.9 | 1.7 | 0.00 | 0.00 | 0.00 | 72 | 1012.8 |
| 20260509065614 | 54 | 351 | 1.7 | 1.7 | 0.00 | 0.00 | 0.00 | 72 | 1013.0 |
| 20260509065110 | 54 | 7 | 1.7 | 1.7 | 0.00 | 0.00 | 0.00 | 73 | 1012.8 |
| 20260509064607 | 54 | 341 | 0.9 | 0.9 | 0.00 | 0.00 | 0.00 | 73 | 1012.8 |
| 20260509064106 | 54 | 341 | 0.9 | 1.7 | 0.00 | 0.00 | 0.00 | 74 | 1012.7 |
| 20260509063602 | 54 | 16 | 1.7 | 1.7 | 0.00 | 0.00 | 0.00 | 73 | 1012.9 |
| 20260509063058 | 54 | 352 | 0.9 | 0.9 | 0.00 | 0.00 | 0.00 | 73 | 1013.1 |
| 20260509062555 | 54 | 355 | 0.9 | 0.9 | 0.00 | 0.00 | 0.00 | 73 | 1012.7 |
| 20260509062053 | 54 | 352 | 0.9 | 0.9 | 0.00 | 0.00 | 0.00 | 73 | 1012.8 |
| 20260509061549 | 54 | 337 | 0.9 | 0.9 | 0.00 | 0.00 | 0.00 | 73 | 1013.0 |
| 20260509061047 | 54 | 1 | 0.9 | 0.9 | 0.00 | 0.00 | 0.00 | 73 | 1013.0 |
| 20260509060544 | 54 | 352 | 0.9 | 0.9 | 0.00 | 0.00 | 0.00 | 73 | 1012.8 |
| 20260509060040 | 54 | 357 | 3.5 | 4.3 | 0.00 | 0.00 | 0.00 | 73 | 1013.0 |
| 20260509055536 | 55 | 11 | 1.7 | 1.7 | 0.00 | 0.00 | 0.00 | 74 | 1013.1 |
| 20260509055032 | 55 | 356 | 0.9 | 1.7 | 0.00 | 0.00 | 0.00 | 74 | 1013.0 |
| 20260509054529 | 55 | 333 | 0.9 | 0.9 | 0.00 | 0.00 | 0.00 | 74 | 1012.9 |
| 20260509054027 | 55 | 9 | 1.7 | 1.7 | 0.00 | 0.00 | 0.00 | 74 | 1013.0 |
| 20260509053526 | 55 | 339 | 0.9 | 0.9 | 0.00 | 0.00 | 0.00 | 74 | 1013.0 |
| 20260509053022 | 55 | 356 | 2.6 | 2.6 | 0.00 | 0.00 | 0.00 | 75 | 1013.0 |
| 20260509052520 | 55 | 333 | 0.9 | 0.9 | 0.00 | 0.00 | 0.00 | 75 | 1013.0 |
| 20260509052018 | 55 | 345 | 0.9 | 1.7 | 0.00 | 0.00 | 0.00 | 75 | 1013.1 |
| 20260509051515 | 55 | 359 | 0.9 | 0.9 | 0.00 | 0.00 | 0.00 | 76 | 1013.1 |
| 20260509051012 | 55 | 341 | 0.0 | 0.0 | 0.00 | 0.00 | 0.00 | 76 | 1013.3 |
| 20260509050508 | 55 | 352 | 0.9 | 0.9 | 0.00 | 0.00 | 0.00 | 76 | 1013.2 |
| 20260509050005 | 55 | 352 | 0.9 | 0.9 | 0.00 | 0.00 | 0.00 | 76 | 1013.4 |
| 20260509045502 | 55 | 341 | 0.9 | 1.7 | 0.00 | 0.00 | 0.00 | 77 | 1013.3 |
| 20260509044959 | 55 | 6 | 0.9 | 0.9 | 0.00 | 0.00 | 0.00 | 77 | 1013.4 |
| 20260509044457 | 55 | 351 | 0.0 | 0.9 | 0.00 | 0.00 | 0.00 | 77 | 1013.4 |
| 20260509043954 | 55 | 346 | 0.0 | 0.0 | 0.00 | 0.00 | 0.00 | 77 | 1013.7 |
| 20260509043449 | 55 | 338 | 0.0 | 0.0 | 0.00 | 0.00 | 0.00 | 77 | 1013.5 |
| 20260509042945 | 55 | 327 | 0.0 | 0.0 | 0.00 | 0.00 | 0.00 | 76 | 1013.5 |
| 20260509042442 | 55 | 325 | 0.0 | 0.0 | 0.00 | 0.00 | 0.00 | 75 | 1013.5 |
| 20260509041938 | 55 | 317 | 0.0 | 0.9 | 0.00 | 0.00 | 0.00 | 74 | 1013.4 |
| 20260509041435 | 56 | 347 | 0.9 | 0.9 | 0.00 | 0.00 | 0.00 | 73 | 1013.2 |
| 20260509040933 | 56 | 337 | 0.0 | 0.0 | 0.00 | 0.00 | 0.00 | 72 | 1013.3 |
| 20260509040431 | 56 | 340 | 0.0 | 0.0 | 0.00 | 0.00 | 0.00 | 71 | 1013.5 |
| 20260509035928 | 57 | 321 | 0.0 | 0.0 | 0.00 | 0.00 | 0.00 | 70 | 1013.4 |
| 20260509035425 | 57 | 342 | 0.0 | 0.0 | 0.00 | 0.00 | 0.00 | 69 | 1013.6 |
| 20260509034921 | 57 | 334 | 0.0 | 0.0 | 0.00 | 0.00 | 0.00 | 69 | 1013.3 |
| 20260509034419 | 57 | 359 | 0.0 | 0.0 | 0.00 | 0.00 | 0.00 | 70 | 1013.7 |
| 20260509033916 | 57 | 338 | 0.0 | 0.0 | 0.00 | 0.00 | 0.00 | 70 | 1013.6 |